sensor_id;sensor_type;location;lat;lon;timestamp;P1;durP1;ratioP1;P2;durP2;ratioP2
57615;SDS011;43816;52.054;-9.494;2023-05-28T00:00:01;0.57;;;0.57;;
57615;SDS011;43816;52.054;-9.494;2023-05-28T00:00:12;0.60;;;0.60;;
57615;SDS011;43816;52.054;-9.494;2023-05-28T00:00:23;0.50;;;0.50;;
57615;SDS011;43816;52.054;-9.494;2023-05-28T00:00:33;0.60;;;0.60;;
57615;SDS011;43816;52.054;-9.494;2023-05-28T00:00:43;0.52;;;0.50;;
57615;SDS011;43816;52.054;-9.494;2023-05-28T00:00:54;0.83;;;0.63;;
57615;SDS011;43816;52.054;-9.494;2023-05-28T00:01:09;0.95;;;0.73;;
57615;SDS011;43816;52.054;-9.494;2023-05-28T00:01:20;0.80;;;0.70;;
57615;SDS011;43816;52.054;-9.494;2023-05-28T00:01:30;0.67;;;0.60;;
57615;SDS011;43816;52.054;-9.494;2023-05-28T00:01:43;0.63;;;0.63;;
57615;SDS011;43816;52.054;-9.494;2023-05-28T00:01:56;0.70;;;0.63;;
57615;SDS011;43816;52.054;-9.494;2023-05-28T00:02:08;0.68;;;0.68;;
57615;SDS011;43816;52.054;-9.494;2023-05-28T00:02:25;0.60;;;0.60;;
57615;SDS011;43816;52.054;-9.494;2023-05-28T00:02:35;0.90;;;0.60;;
57615;SDS011;43816;52.054;-9.494;2023-05-28T00:02:46;1.00;;;0.60;;
57615;SDS011;43816;52.054;-9.494;2023-05-28T00:02:56;0.97;;;0.50;;
57615;SDS011;43816;52.054;-9.494;2023-05-28T00:03:07;0.70;;;0.50;;
57615;SDS011;43816;52.054;-9.494;2023-05-28T00:03:17;0.53;;;0.50;;
57615;SDS011;43816;52.054;-9.494;2023-05-28T00:03:27;0.85;;;0.60;;
57615;SDS011;43816;52.054;-9.494;2023-05-28T00:03:38;1.30;;;0.70;;
57615;SDS011;43816;52.054;-9.494;2023-05-28T00:03:48;1.08;;;0.70;;
57615;SDS011;43816;52.054;-9.494;2023-05-28T00:04:01;0.87;;;0.70;;
57615;SDS011;43816;52.054;-9.494;2023-05-28T00:04:11;0.65;;;0.60;;
57615;SDS011;43816;52.054;-9.494;2023-05-28T00:04:22;0.73;;;0.70;;
57615;SDS011;43816;52.054;-9.494;2023-05-28T00:04:32;0.98;;;0.70;;
57615;SDS011;43816;52.054;-9.494;2023-05-28T00:04:43;0.90;;;0.70;;
57615;SDS011;43816;52.054;-9.494;2023-05-28T00:04:56;0.98;;;0.60;;
57615;SDS011;43816;52.054;-9.494;2023-05-28T00:05:08;0.70;;;0.60;;
57615;SDS011;43816;52.054;-9.494;2023-05-28T00:05:21;0.60;;;0.60;;
57615;SDS011;43816;52.054;-9.494;2023-05-28T00:05:49;1.13;;;0.63;;
57615;SDS011;43816;52.054;-9.494;2023-05-28T00:06:00;1.30;;;0.70;;
57615;SDS011;43816;52.054;-9.494;2023-05-28T00:06:12;0.97;;;0.70;;
57615;SDS011;43816;52.054;-9.494;2023-05-28T00:06:26;0.70;;;0.60;;
57615;SDS011;43816;52.054;-9.494;2023-05-28T00:06:38;0.90;;;0.60;;
57615;SDS011;43816;52.054;-9.494;2023-05-28T00:07:01;0.80;;;0.60;;
57615;SDS011;43816;52.054;-9.494;2023-05-28T00:07:20;0.80;;;0.57;;
57615;SDS011;43816;52.054;-9.494;2023-05-28T00:07:43;0.60;;;0.57;;
57615;SDS011;43816;52.054;-9.494;2023-05-28T00:07:55;1.20;;;0.80;;
57615;SDS011;43816;52.054;-9.494;2023-05-28T00:08:06;0.93;;;0.73;;
57615;SDS011;43816;52.054;-9.494;2023-05-28T00:08:19;1.17;;;0.70;;
57615;SDS011;43816;52.054;-9.494;2023-05-28T00:08:32;1.27;;;0.70;;
57615;SDS011;43816;52.054;-9.494;2023-05-28T00:08:46;1.15;;;0.80;;
57615;SDS011;43816;52.054;-9.494;2023-05-28T00:09:05;0.98;;;0.68;;
57615;SDS011;43816;52.054;-9.494;2023-05-28T00:09:19;1.00;;;0.80;;
57615;SDS011;43816;52.054;-9.494;2023-05-28T00:09:32;0.95;;;0.73;;
57615;SDS011;43816;52.054;-9.494;2023-05-28T00:09:57;0.73;;;0.60;;
57615;SDS011;43816;52.054;-9.494;2023-05-28T00:10:10;0.88;;;0.60;;
57615;SDS011;43816;52.054;-9.494;2023-05-28T00:10:20;0.97;;;0.60;;
57615;SDS011;43816;52.054;-9.494;2023-05-28T00:10:36;1.20;;;0.70;;
57615;SDS011;43816;52.054;-9.494;2023-05-28T00:10:49;0.85;;;0.70;;
57615;SDS011;43816;52.054;-9.494;2023-05-28T00:10:59;0.50;;;0.50;;
57615;SDS011;43816;52.054;-9.494;2023-05-28T00:11:15;0.75;;;0.60;;
57615;SDS011;43816;52.054;-9.494;2023-05-28T00:11:28;1.40;;;0.70;;
57615;SDS011;43816;52.054;-9.494;2023-05-28T00:11:38;1.40;;;0.70;;
57615;SDS011;43816;52.054;-9.494;2023-05-28T00:11:48;1.07;;;0.63;;
57615;SDS011;43816;52.054;-9.494;2023-05-28T00:11:59;0.75;;;0.63;;
57615;SDS011;43816;52.054;-9.494;2023-05-28T00:12:12;0.90;;;0.70;;
57615;SDS011;43816;52.054;-9.494;2023-05-28T00:12:25;1.13;;;0.75;;
57615;SDS011;43816;52.054;-9.494;2023-05-28T00:12:36;1.35;;;0.80;;
57615;SDS011;43816;52.054;-9.494;2023-05-28T00:12:46;1.53;;;0.90;;
57615;SDS011;43816;52.054;-9.494;2023-05-28T00:12:57;1.33;;;0.77;;
57615;SDS011;43816;52.054;-9.494;2023-05-28T00:13:07;1.07;;;0.70;;
57615;SDS011;43816;52.054;-9.494;2023-05-28T00:13:21;0.75;;;0.60;;
57615;SDS011;43816;52.054;-9.494;2023-05-28T00:13:31;0.60;;;0.60;;
57615;SDS011;43816;52.054;-9.494;2023-05-28T00:14:19;1.00;;;0.70;;
57615;SDS011;43816;52.054;-9.494;2023-05-28T00:14:29;0.80;;;0.70;;
57615;SDS011;43816;52.054;-9.494;2023-05-28T00:14:40;0.90;;;0.70;;
57615;SDS011;43816;52.054;-9.494;2023-05-28T00:14:50;0.60;;;0.53;;
57615;SDS011;43816;52.054;-9.494;2023-05-28T00:15:01;0.65;;;0.50;;
57615;SDS011;43816;52.054;-9.494;2023-05-28T00:15:11;0.70;;;0.60;;
57615;SDS011;43816;52.054;-9.494;2023-05-28T00:15:22;0.70;;;0.60;;
57615;SDS011;43816;52.054;-9.494;2023-05-28T00:15:32;1.17;;;0.70;;
57615;SDS011;43816;52.054;-9.494;2023-05-28T00:15:43;1.10;;;0.70;;
57615;SDS011;43816;52.054;-9.494;2023-05-28T00:15:54;1.40;;;0.70;;
57615;SDS011;43816;52.054;-9.494;2023-05-28T00:16:04;0.87;;;0.70;;
57615;SDS011;43816;52.054;-9.494;2023-05-28T00:16:15;0.90;;;0.80;;
57615;SDS011;43816;52.054;-9.494;2023-05-28T00:16:25;0.70;;;0.70;;
57615;SDS011;43816;52.054;-9.494;2023-05-28T00:16:35;0.70;;;0.70;;
57615;SDS011;43816;52.054;-9.494;2023-05-28T00:16:46;0.60;;;0.60;;
57615;SDS011;43816;52.054;-9.494;2023-05-28T00:16:56;0.80;;;0.70;;
57615;SDS011;43816;52.054;-9.494;2023-05-28T00:17:06;0.90;;;0.70;;
57615;SDS011;43816;52.054;-9.494;2023-05-28T00:17:16;1.10;;;0.82;;
57615;SDS011;43816;52.054;-9.494;2023-05-28T00:17:27;0.83;;;0.70;;
57615;SDS011;43816;52.054;-9.494;2023-05-28T00:17:37;0.65;;;0.65;;
57615;SDS011;43816;52.054;-9.494;2023-05-28T00:17:48;0.40;;;0.40;;
57615;SDS011;43816;52.054;-9.494;2023-05-28T00:17:58;0.60;;;0.50;;
57615;SDS011;43816;52.054;-9.494;2023-05-28T00:18:08;0.63;;;0.50;;
57615;SDS011;43816;52.054;-9.494;2023-05-28T00:18:21;0.70;;;0.60;;
57615;SDS011;43816;52.054;-9.494;2023-05-28T00:18:32;0.63;;;0.60;;
57615;SDS011;43816;52.054;-9.494;2023-05-28T00:18:42;0.88;;;0.60;;
57615;SDS011;43816;52.054;-9.494;2023-05-28T00:18:56;0.90;;;0.60;;
57615;SDS011;43816;52.054;-9.494;2023-05-28T00:19:06;0.63;;;0.60;;
57615;SDS011;43816;52.054;-9.494;2023-05-28T00:19:17;0.70;;;0.70;;
57615;SDS011;43816;52.054;-9.494;2023-05-28T00:19:27;0.90;;;0.70;;
57615;SDS011;43816;52.054;-9.494;2023-05-28T00:19:37;1.20;;;0.80;;
57615;SDS011;43816;52.054;-9.494;2023-05-28T00:19:48;1.10;;;0.70;;
57615;SDS011;43816;52.054;-9.494;2023-05-28T00:19:58;0.90;;;0.70;;
57615;SDS011;43816;52.054;-9.494;2023-05-28T00:20:11;0.80;;;0.70;;
57615;SDS011;43816;52.054;-9.494;2023-05-28T00:20:22;0.70;;;0.70;;
57615;SDS011;43816;52.054;-9.494;2023-05-28T00:20:32;0.70;;;0.70;;
57615;SDS011;43816;52.054;-9.494;2023-05-28T00:20:42;0.90;;;0.80;;
57615;SDS011;43816;52.054;-9.494;2023-05-28T00:20:55;1.03;;;0.83;;
57615;SDS011;43816;52.054;-9.494;2023-05-28T00:21:06;1.23;;;0.90;;
57615;SDS011;43816;52.054;-9.494;2023-05-28T00:21:19;1.20;;;0.80;;
57615;SDS011;43816;52.054;-9.494;2023-05-28T00:21:30;0.87;;;0.70;;
57615;SDS011;43816;52.054;-9.494;2023-05-28T00:21:42;0.68;;;0.50;;
57615;SDS011;43816;52.054;-9.494;2023-05-28T00:21:53;0.60;;;0.50;;
57615;SDS011;43816;52.054;-9.494;2023-05-28T00:22:03;0.75;;;0.60;;
57615;SDS011;43816;52.054;-9.494;2023-05-28T00:22:13;0.80;;;0.60;;
57615;SDS011;43816;52.054;-9.494;2023-05-28T00:22:24;0.93;;;0.60;;
57615;SDS011;43816;52.054;-9.494;2023-05-28T00:22:34;0.80;;;0.57;;
57615;SDS011;43816;52.054;-9.494;2023-05-28T00:22:44;0.80;;;0.60;;
57615;SDS011;43816;52.054;-9.494;2023-05-28T00:22:55;0.68;;;0.60;;
57615;SDS011;43816;52.054;-9.494;2023-05-28T00:23:28;0.60;;;0.60;;
57615;SDS011;43816;52.054;-9.494;2023-05-28T00:23:38;0.93;;;0.50;;
57615;SDS011;43816;52.054;-9.494;2023-05-28T00:23:49;1.00;;;0.70;;
57615;SDS011;43816;52.054;-9.494;2023-05-28T00:23:59;0.70;;;0.70;;
57615;SDS011;43816;52.054;-9.494;2023-05-28T00:24:10;0.70;;;0.70;;
57615;SDS011;43816;52.054;-9.494;2023-05-28T00:24:20;0.60;;;0.60;;
57615;SDS011;43816;52.054;-9.494;2023-05-28T00:24:30;0.83;;;0.67;;
57615;SDS011;43816;52.054;-9.494;2023-05-28T00:24:41;1.00;;;0.73;;
57615;SDS011;43816;52.054;-9.494;2023-05-28T00:24:51;0.90;;;0.77;;
57615;SDS011;43816;52.054;-9.494;2023-05-28T00:25:01;0.70;;;0.63;;
57615;SDS011;43816;52.054;-9.494;2023-05-28T00:25:12;0.65;;;0.63;;
57615;SDS011;43816;52.054;-9.494;2023-05-28T00:25:22;0.80;;;0.63;;
57615;SDS011;43816;52.054;-9.494;2023-05-28T00:25:32;1.20;;;0.77;;
57615;SDS011;43816;52.054;-9.494;2023-05-28T00:25:45;1.20;;;0.73;;
57615;SDS011;43816;52.054;-9.494;2023-05-28T00:25:55;0.88;;;0.73;;
57615;SDS011;43816;52.054;-9.494;2023-05-28T00:26:05;0.60;;;0.60;;
57615;SDS011;43816;52.054;-9.494;2023-05-28T00:26:16;0.80;;;0.75;;
57615;SDS011;43816;52.054;-9.494;2023-05-28T00:26:26;0.90;;;0.70;;
57615;SDS011;43816;52.054;-9.494;2023-05-28T00:26:39;1.00;;;0.73;;
57615;SDS011;43816;52.054;-9.494;2023-05-28T00:26:52;0.82;;;0.63;;
57615;SDS011;43816;52.054;-9.494;2023-05-28T00:27:02;0.83;;;0.60;;
57615;SDS011;43816;52.054;-9.494;2023-05-28T00:27:13;0.77;;;0.68;;
57615;SDS011;43816;52.054;-9.494;2023-05-28T00:27:23;0.70;;;0.67;;
57615;SDS011;43816;52.054;-9.494;2023-05-28T00:27:33;0.80;;;0.70;;
57615;SDS011;43816;52.054;-9.494;2023-05-28T00:27:44;0.90;;;0.70;;
57615;SDS011;43816;52.054;-9.494;2023-05-28T00:27:54;0.93;;;0.70;;
57615;SDS011;43816;52.054;-9.494;2023-05-28T00:28:04;0.93;;;0.65;;
57615;SDS011;43816;52.054;-9.494;2023-05-28T00:28:15;0.80;;;0.60;;
57615;SDS011;43816;52.054;-9.494;2023-05-28T00:28:25;0.77;;;0.53;;
57615;SDS011;43816;52.054;-9.494;2023-05-28T00:28:35;0.55;;;0.50;;
57615;SDS011;43816;52.054;-9.494;2023-05-28T00:28:46;0.67;;;0.57;;
57615;SDS011;43816;52.054;-9.494;2023-05-28T00:28:56;0.63;;;0.60;;
57615;SDS011;43816;52.054;-9.494;2023-05-28T00:29:06;0.75;;;0.70;;
57615;SDS011;43816;52.054;-9.494;2023-05-28T00:29:17;0.60;;;0.60;;
57615;SDS011;43816;52.054;-9.494;2023-05-28T00:29:27;0.67;;;0.67;;
57615;SDS011;43816;52.054;-9.494;2023-05-28T00:29:37;0.70;;;0.68;;
57615;SDS011;43816;52.054;-9.494;2023-05-28T00:29:48;0.70;;;0.70;;
57615;SDS011;43816;52.054;-9.494;2023-05-28T00:29:58;0.70;;;0.70;;
57615;SDS011;43816;52.054;-9.494;2023-05-28T00:30:08;0.70;;;0.70;;
57615;SDS011;43816;52.054;-9.494;2023-05-28T00:30:19;0.87;;;0.70;;
57615;SDS011;43816;52.054;-9.494;2023-05-28T00:30:29;0.80;;;0.63;;
57615;SDS011;43816;52.054;-9.494;2023-05-28T00:30:42;0.80;;;0.60;;
57615;SDS011;43816;52.054;-9.494;2023-05-28T00:30:55;0.72;;;0.52;;
57615;SDS011;43816;52.054;-9.494;2023-05-28T00:31:08;0.70;;;0.60;;
57615;SDS011;43816;52.054;-9.494;2023-05-28T00:31:18;0.68;;;0.60;;
57615;SDS011;43816;52.054;-9.494;2023-05-28T00:31:28;0.70;;;0.70;;
57615;SDS011;43816;52.054;-9.494;2023-05-28T00:31:39;0.87;;;0.70;;
57615;SDS011;43816;52.054;-9.494;2023-05-28T00:31:49;1.03;;;0.80;;
57615;SDS011;43816;52.054;-9.494;2023-05-28T00:31:59;1.30;;;0.88;;
57615;SDS011;43816;52.054;-9.494;2023-05-28T00:32:13;1.15;;;0.75;;
57615;SDS011;43816;52.054;-9.494;2023-05-28T00:32:23;0.75;;;0.60;;
57615;SDS011;43816;52.054;-9.494;2023-05-28T00:32:33;0.70;;;0.70;;
57615;SDS011;43816;52.054;-9.494;2023-05-28T00:32:44;0.80;;;0.70;;
57615;SDS011;43816;52.054;-9.494;2023-05-28T00:32:54;0.80;;;0.70;;
57615;SDS011;43816;52.054;-9.494;2023-05-28T00:33:04;0.77;;;0.63;;
57615;SDS011;43816;52.054;-9.494;2023-05-28T00:33:15;0.80;;;0.60;;
57615;SDS011;43816;52.054;-9.494;2023-05-28T00:33:25;0.73;;;0.60;;
57615;SDS011;43816;52.054;-9.494;2023-05-28T00:33:35;0.83;;;0.60;;
57615;SDS011;43816;52.054;-9.494;2023-05-28T00:33:46;0.80;;;0.63;;
57615;SDS011;43816;52.054;-9.494;2023-05-28T00:33:56;1.13;;;0.77;;
57615;SDS011;43816;52.054;-9.494;2023-05-28T00:34:06;1.10;;;0.73;;
57615;SDS011;43816;52.054;-9.494;2023-05-28T00:34:17;1.03;;;0.70;;
57615;SDS011;43816;52.054;-9.494;2023-05-28T00:34:27;0.70;;;0.65;;
57615;SDS011;43816;52.054;-9.494;2023-05-28T00:34:38;0.70;;;0.70;;
57615;SDS011;43816;52.054;-9.494;2023-05-28T00:34:48;0.88;;;0.70;;
57615;SDS011;43816;52.054;-9.494;2023-05-28T00:34:58;0.90;;;0.70;;
57615;SDS011;43816;52.054;-9.494;2023-05-28T00:35:09;0.97;;;0.70;;
57615;SDS011;43816;52.054;-9.494;2023-05-28T00:35:19;0.80;;;0.65;;
57615;SDS011;43816;52.054;-9.494;2023-05-28T00:35:29;0.87;;;0.70;;
57615;SDS011;43816;52.054;-9.494;2023-05-28T00:35:40;0.87;;;0.70;;
57615;SDS011;43816;52.054;-9.494;2023-05-28T00:35:50;0.90;;;0.70;;
57615;SDS011;43816;52.054;-9.494;2023-05-28T00:36:00;0.73;;;0.70;;
57615;SDS011;43816;52.054;-9.494;2023-05-28T00:36:14;0.63;;;0.63;;
57615;SDS011;43816;52.054;-9.494;2023-05-28T00:36:24;0.60;;;0.60;;
57615;SDS011;43816;52.054;-9.494;2023-05-28T00:36:35;0.63;;;0.63;;
57615;SDS011;43816;52.054;-9.494;2023-05-28T00:36:45;0.60;;;0.60;;
57615;SDS011;43816;52.054;-9.494;2023-05-28T00:36:56;0.60;;;0.60;;
57615;SDS011;43816;52.054;-9.494;2023-05-28T00:37:06;0.60;;;0.60;;
57615;SDS011;43816;52.054;-9.494;2023-05-28T00:37:16;0.70;;;0.70;;
57615;SDS011;43816;52.054;-9.494;2023-05-28T00:37:29;0.73;;;0.70;;
57615;SDS011;43816;52.054;-9.494;2023-05-28T00:37:39;0.70;;;0.70;;
57615;SDS011;43816;52.054;-9.494;2023-05-28T00:37:49;0.60;;;0.60;;
57615;SDS011;43816;52.054;-9.494;2023-05-28T00:38:00;0.68;;;0.68;;
57615;SDS011;43816;52.054;-9.494;2023-05-28T00:38:10;0.63;;;0.63;;
57615;SDS011;43816;52.054;-9.494;2023-05-28T00:38:21;0.60;;;0.60;;
57615;SDS011;43816;52.054;-9.494;2023-05-28T00:38:31;0.60;;;0.60;;
57615;SDS011;43816;52.054;-9.494;2023-05-28T00:38:42;0.60;;;0.60;;
57615;SDS011;43816;52.054;-9.494;2023-05-28T00:38:52;0.70;;;0.60;;
57615;SDS011;43816;52.054;-9.494;2023-05-28T00:39:05;0.60;;;0.60;;
57615;SDS011;43816;52.054;-9.494;2023-05-28T00:39:16;0.73;;;0.70;;
57615;SDS011;43816;52.054;-9.494;2023-05-28T00:39:27;0.80;;;0.70;;
57615;SDS011;43816;52.054;-9.494;2023-05-28T00:39:37;0.87;;;0.77;;
57615;SDS011;43816;52.054;-9.494;2023-05-28T00:39:48;0.60;;;0.60;;
57615;SDS011;43816;52.054;-9.494;2023-05-28T00:39:58;0.60;;;0.60;;
57615;SDS011;43816;52.054;-9.494;2023-05-28T00:40:08;0.60;;;0.60;;
57615;SDS011;43816;52.054;-9.494;2023-05-28T00:40:19;0.88;;;0.70;;
57615;SDS011;43816;52.054;-9.494;2023-05-28T00:40:29;0.90;;;0.70;;
57615;SDS011;43816;52.054;-9.494;2023-05-28T00:40:45;1.08;;;0.70;;
57615;SDS011;43816;52.054;-9.494;2023-05-28T00:40:55;1.30;;;0.70;;
57615;SDS011;43816;52.054;-9.494;2023-05-28T00:41:06;1.33;;;0.68;;
57615;SDS011;43816;52.054;-9.494;2023-05-28T00:41:19;1.07;;;0.60;;
57615;SDS011;43816;52.054;-9.494;2023-05-28T00:41:30;0.82;;;0.65;;
57615;SDS011;43816;52.054;-9.494;2023-05-28T00:41:40;1.00;;;0.70;;
57615;SDS011;43816;52.054;-9.494;2023-05-28T00:41:59;1.37;;;0.70;;
57615;SDS011;43816;52.054;-9.494;2023-05-28T00:42:10;1.00;;;0.80;;
57615;SDS011;43816;52.054;-9.494;2023-05-28T00:42:20;1.07;;;0.80;;
57615;SDS011;43816;52.054;-9.494;2023-05-28T00:42:30;1.10;;;0.80;;
57615;SDS011;43816;52.054;-9.494;2023-05-28T00:42:43;1.13;;;0.80;;
57615;SDS011;43816;52.054;-9.494;2023-05-28T00:42:54;0.77;;;0.77;;
57615;SDS011;43816;52.054;-9.494;2023-05-28T00:43:04;0.70;;;0.70;;
57615;SDS011;43816;52.054;-9.494;2023-05-28T00:43:14;0.70;;;0.70;;
57615;SDS011;43816;52.054;-9.494;2023-05-28T00:43:25;0.67;;;0.60;;
57615;SDS011;43816;52.054;-9.494;2023-05-28T00:43:35;0.90;;;0.70;;
57615;SDS011;43816;52.054;-9.494;2023-05-28T00:43:46;0.93;;;0.70;;
57615;SDS011;43816;52.054;-9.494;2023-05-28T00:43:56;0.90;;;0.70;;
57615;SDS011;43816;52.054;-9.494;2023-05-28T00:44:07;0.80;;;0.70;;
57615;SDS011;43816;52.054;-9.494;2023-05-28T00:44:17;0.70;;;0.70;;
57615;SDS011;43816;52.054;-9.494;2023-05-28T00:44:28;0.70;;;0.70;;
57615;SDS011;43816;52.054;-9.494;2023-05-28T00:44:38;0.75;;;0.70;;
57615;SDS011;43816;52.054;-9.494;2023-05-28T00:44:48;0.87;;;0.70;;
57615;SDS011;43816;52.054;-9.494;2023-05-28T00:44:59;0.87;;;0.70;;
57615;SDS011;43816;52.054;-9.494;2023-05-28T00:45:09;0.90;;;0.70;;
57615;SDS011;43816;52.054;-9.494;2023-05-28T00:45:20;1.10;;;0.70;;
57615;SDS011;43816;52.054;-9.494;2023-05-28T00:45:30;1.00;;;0.80;;
57615;SDS011;43816;52.054;-9.494;2023-05-28T00:45:41;0.70;;;0.70;;
57615;SDS011;43816;52.054;-9.494;2023-05-28T00:45:51;0.60;;;0.60;;
57615;SDS011;43816;52.054;-9.494;2023-05-28T00:46:01;0.65;;;0.65;;
57615;SDS011;43816;52.054;-9.494;2023-05-28T00:46:13;0.80;;;0.68;;
57615;SDS011;43816;52.054;-9.494;2023-05-28T00:46:28;1.15;;;0.80;;
57615;SDS011;43816;52.054;-9.494;2023-05-28T00:46:42;0.90;;;0.70;;
57615;SDS011;43816;52.054;-9.494;2023-05-28T00:46:54;0.90;;;0.60;;
57615;SDS011;43816;52.054;-9.494;2023-05-28T00:47:05;1.20;;;0.63;;
57615;SDS011;43816;52.054;-9.494;2023-05-28T00:47:15;1.17;;;0.70;;
57615;SDS011;43816;52.054;-9.494;2023-05-28T00:47:26;0.95;;;0.70;;
57615;SDS011;43816;52.054;-9.494;2023-05-28T00:47:37;0.70;;;0.70;;
57615;SDS011;43816;52.054;-9.494;2023-05-28T00:47:50;0.90;;;0.70;;
57615;SDS011;43816;52.054;-9.494;2023-05-28T00:48:01;1.17;;;0.73;;
57615;SDS011;43816;52.054;-9.494;2023-05-28T00:48:12;0.97;;;0.70;;
57615;SDS011;43816;52.054;-9.494;2023-05-28T00:48:22;0.93;;;0.73;;
57615;SDS011;43816;52.054;-9.494;2023-05-28T00:48:33;0.98;;;0.77;;
57615;SDS011;43816;52.054;-9.494;2023-05-28T00:48:54;1.05;;;0.77;;
57615;SDS011;43816;52.054;-9.494;2023-05-28T00:49:05;1.05;;;0.68;;
57615;SDS011;43816;52.054;-9.494;2023-05-28T00:49:15;1.10;;;0.60;;
57615;SDS011;43816;52.054;-9.494;2023-05-28T00:49:25;0.80;;;0.70;;
57615;SDS011;43816;52.054;-9.494;2023-05-28T00:49:37;0.98;;;0.73;;
57615;SDS011;43816;52.054;-9.494;2023-05-28T00:49:49;1.00;;;0.80;;
57615;SDS011;43816;52.054;-9.494;2023-05-28T00:50:00;1.04;;;0.70;;
57615;SDS011;43816;52.054;-9.494;2023-05-28T00:50:11;0.93;;;0.80;;
57615;SDS011;43816;52.054;-9.494;2023-05-28T00:50:22;0.88;;;0.80;;
57615;SDS011;43816;52.054;-9.494;2023-05-28T00:50:32;1.03;;;0.83;;
57615;SDS011;43816;52.054;-9.494;2023-05-28T00:50:43;0.80;;;0.80;;
57615;SDS011;43816;52.054;-9.494;2023-05-28T00:50:53;0.90;;;0.73;;
57615;SDS011;43816;52.054;-9.494;2023-05-28T00:51:04;0.80;;;0.70;;
57615;SDS011;43816;52.054;-9.494;2023-05-28T00:51:15;0.90;;;0.70;;
57615;SDS011;43816;52.054;-9.494;2023-05-28T00:51:25;0.70;;;0.60;;
57615;SDS011;43816;52.054;-9.494;2023-05-28T00:51:36;0.60;;;0.52;;
57615;SDS011;43816;52.054;-9.494;2023-05-28T00:51:46;0.60;;;0.50;;
57615;SDS011;43816;52.054;-9.494;2023-05-28T00:51:56;0.63;;;0.60;;
57615;SDS011;43816;52.054;-9.494;2023-05-28T00:52:07;0.65;;;0.60;;
57615;SDS011;43816;52.054;-9.494;2023-05-28T00:52:19;0.70;;;0.60;;
57615;SDS011;43816;52.054;-9.494;2023-05-28T00:52:30;0.70;;;0.55;;
57615;SDS011;43816;52.054;-9.494;2023-05-28T00:52:43;0.80;;;0.70;;
57615;SDS011;43816;52.054;-9.494;2023-05-28T00:52:58;1.05;;;0.85;;
57615;SDS011;43816;52.054;-9.494;2023-05-28T00:53:10;0.90;;;0.70;;
57615;SDS011;43816;52.054;-9.494;2023-05-28T00:53:23;0.98;;;0.70;;
57615;SDS011;43816;52.054;-9.494;2023-05-28T00:53:33;1.05;;;0.70;;
57615;SDS011;43816;52.054;-9.494;2023-05-28T00:53:44;1.45;;;0.80;;
57615;SDS011;43816;52.054;-9.494;2023-05-28T00:53:54;1.33;;;0.80;;
57615;SDS011;43816;52.054;-9.494;2023-05-28T00:54:05;1.30;;;0.80;;
57615;SDS011;43816;52.054;-9.494;2023-05-28T00:54:16;1.00;;;0.70;;
57615;SDS011;43816;52.054;-9.494;2023-05-28T00:54:29;0.77;;;0.70;;
57615;SDS011;43816;52.054;-9.494;2023-05-28T00:54:40;0.70;;;0.70;;
57615;SDS011;43816;52.054;-9.494;2023-05-28T00:54:50;0.70;;;0.70;;
57615;SDS011;43816;52.054;-9.494;2023-05-28T00:55:01;0.80;;;0.70;;
57615;SDS011;43816;52.054;-9.494;2023-05-28T00:55:13;0.85;;;0.70;;
57615;SDS011;43816;52.054;-9.494;2023-05-28T00:55:25;0.90;;;0.80;;
57615;SDS011;43816;52.054;-9.494;2023-05-28T00:55:35;0.97;;;0.80;;
57615;SDS011;43816;52.054;-9.494;2023-05-28T00:55:46;1.00;;;0.80;;
57615;SDS011;43816;52.054;-9.494;2023-05-28T00:55:57;1.00;;;0.70;;
57615;SDS011;43816;52.054;-9.494;2023-05-28T00:56:11;1.03;;;0.70;;
57615;SDS011;43816;52.054;-9.494;2023-05-28T00:56:21;0.90;;;0.70;;
57615;SDS011;43816;52.054;-9.494;2023-05-28T00:56:32;1.15;;;0.85;;
57615;SDS011;43816;52.054;-9.494;2023-05-28T00:56:43;1.07;;;0.90;;
57615;SDS011;43816;52.054;-9.494;2023-05-28T00:56:53;1.20;;;0.90;;
57615;SDS011;43816;52.054;-9.494;2023-05-28T00:57:04;0.82;;;0.80;;
57615;SDS011;43816;52.054;-9.494;2023-05-28T00:57:15;0.95;;;0.70;;
57615;SDS011;43816;52.054;-9.494;2023-05-28T00:57:25;0.77;;;0.60;;
57615;SDS011;43816;52.054;-9.494;2023-05-28T00:57:36;1.10;;;0.70;;
57615;SDS011;43816;52.054;-9.494;2023-05-28T00:57:49;1.15;;;0.70;;
57615;SDS011;43816;52.054;-9.494;2023-05-28T00:58:00;0.93;;;0.77;;
57615;SDS011;43816;52.054;-9.494;2023-05-28T00:58:11;0.73;;;0.70;;
57615;SDS011;43816;52.054;-9.494;2023-05-28T00:58:22;0.85;;;0.70;;
57615;SDS011;43816;52.054;-9.494;2023-05-28T00:58:34;1.00;;;0.68;;
57615;SDS011;43816;52.054;-9.494;2023-05-28T00:58:44;1.33;;;0.80;;
57615;SDS011;43816;52.054;-9.494;2023-05-28T00:58:55;1.37;;;0.80;;
57615;SDS011;43816;52.054;-9.494;2023-05-28T00:59:05;1.40;;;0.77;;
57615;SDS011;43816;52.054;-9.494;2023-05-28T00:59:16;1.30;;;0.70;;
57615;SDS011;43816;52.054;-9.494;2023-05-28T00:59:26;1.05;;;0.60;;
57615;SDS011;43816;52.054;-9.494;2023-05-28T00:59:38;0.82;;;0.63;;
57615;SDS011;43816;52.054;-9.494;2023-05-28T00:59:51;0.70;;;0.70;;
57615;SDS011;43816;52.054;-9.494;2023-05-28T01:00:03;0.75;;;0.75;;
57615;SDS011;43816;52.054;-9.494;2023-05-28T01:00:13;0.80;;;0.70;;
57615;SDS011;43816;52.054;-9.494;2023-05-28T01:00:25;0.90;;;0.70;;
57615;SDS011;43816;52.054;-9.494;2023-05-28T01:00:36;0.90;;;0.77;;
57615;SDS011;43816;52.054;-9.494;2023-05-28T01:00:47;0.80;;;0.75;;
57615;SDS011;43816;52.054;-9.494;2023-05-28T01:00:58;0.70;;;0.70;;
57615;SDS011;43816;52.054;-9.494;2023-05-28T01:01:08;0.68;;;0.60;;
57615;SDS011;43816;52.054;-9.494;2023-05-28T01:01:19;0.77;;;0.70;;
57615;SDS011;43816;52.054;-9.494;2023-05-28T01:01:30;1.00;;;0.80;;
57615;SDS011;43816;52.054;-9.494;2023-05-28T01:01:41;0.90;;;0.80;;
57615;SDS011;43816;52.054;-9.494;2023-05-28T01:01:53;0.90;;;0.80;;
57615;SDS011;43816;52.054;-9.494;2023-05-28T01:02:03;0.70;;;0.70;;
57615;SDS011;43816;52.054;-9.494;2023-05-28T01:02:14;0.68;;;0.68;;
57615;SDS011;43816;52.054;-9.494;2023-05-28T01:02:25;0.70;;;0.65;;
57615;SDS011;43816;52.054;-9.494;2023-05-28T01:02:36;0.70;;;0.70;;
57615;SDS011;43816;52.054;-9.494;2023-05-28T01:02:46;0.75;;;0.70;;
57615;SDS011;43816;52.054;-9.494;2023-05-28T01:02:56;0.70;;;0.63;;
57615;SDS011;43816;52.054;-9.494;2023-05-28T01:03:07;0.77;;;0.68;;
57615;SDS011;43816;52.054;-9.494;2023-05-28T01:03:17;0.83;;;0.70;;
57615;SDS011;43816;52.054;-9.494;2023-05-28T01:03:28;0.87;;;0.67;;
57615;SDS011;43816;52.054;-9.494;2023-05-28T01:03:38;0.93;;;0.68;;
57615;SDS011;43816;52.054;-9.494;2023-05-28T01:03:48;0.80;;;0.70;;
57615;SDS011;43816;52.054;-9.494;2023-05-28T01:03:59;0.75;;;0.70;;
57615;SDS011;43816;52.054;-9.494;2023-05-28T01:04:09;0.70;;;0.70;;
57615;SDS011;43816;52.054;-9.494;2023-05-28T01:04:22;0.77;;;0.77;;
57615;SDS011;43816;52.054;-9.494;2023-05-28T01:04:33;0.70;;;0.70;;
57615;SDS011;43816;52.054;-9.494;2023-05-28T01:04:43;0.70;;;0.70;;
57615;SDS011;43816;52.054;-9.494;2023-05-28T01:04:53;0.80;;;0.80;;
57615;SDS011;43816;52.054;-9.494;2023-05-28T01:05:04;0.85;;;0.80;;
57615;SDS011;43816;52.054;-9.494;2023-05-28T01:05:14;0.93;;;0.80;;
57615;SDS011;43816;52.054;-9.494;2023-05-28T01:05:24;0.70;;;0.70;;
57615;SDS011;43816;52.054;-9.494;2023-05-28T01:05:35;0.70;;;0.70;;
57615;SDS011;43816;52.054;-9.494;2023-05-28T01:05:45;0.80;;;0.70;;
57615;SDS011;43816;52.054;-9.494;2023-05-28T01:05:56;0.90;;;0.70;;
57615;SDS011;43816;52.054;-9.494;2023-05-28T01:06:07;1.00;;;0.70;;
57615;SDS011;43816;52.054;-9.494;2023-05-28T01:06:20;0.85;;;0.70;;
57615;SDS011;43816;52.054;-9.494;2023-05-28T01:06:31;0.60;;;0.60;;
57615;SDS011;43816;52.054;-9.494;2023-05-28T01:06:42;0.60;;;0.60;;
57615;SDS011;43816;52.054;-9.494;2023-05-28T01:06:54;0.70;;;0.70;;
57615;SDS011;43816;52.054;-9.494;2023-05-28T01:07:05;0.70;;;0.70;;
57615;SDS011;43816;52.054;-9.494;2023-05-28T01:07:16;0.70;;;0.70;;
57615;SDS011;43816;52.054;-9.494;2023-05-28T01:07:26;0.80;;;0.70;;
57615;SDS011;43816;52.054;-9.494;2023-05-28T01:07:37;0.77;;;0.70;;